Time;durP1;ratioP1;P1;durP2;ratioP2;P2;SDS_P1;SDS_P2;PMS_P1;PMS_P2;Temp;Humidity;BMP_temperature;BMP_pressure;BME280_temperature;BME280_humidity;BME280_pressure;Samples;Min_cycle;Max_cycle;Signal;HPM_P1;HPM_P2
2022/03/11 00:00:59;;;;;;;54.33;20.60;;;-3.80;87.40;;;;;;10264331;28;20121;-84
2022/03/11 00:06:00;;;;;;;52.10;19.13;;;-3.90;87.50;;;;;;10285022;28;20042;-84
2022/03/11 00:11:00;;;;;;;46.23;19.10;;;-3.90;87.90;;;;;;10271701;28;20039;-85
2022/03/11 00:16:02;;;;;;;41.27;17.30;;;-3.90;87.30;;;;;;10261148;28;20439;-84
2022/03/11 00:21:02;;;;;;;39.67;16.07;;;-4.00;87.30;;;;;;10282044;28;20078;-86
2022/03/11 00:26:03;;;;;;;41.97;18.17;;;-3.90;87.30;;;;;;10249798;28;20486;-84
2022/03/11 00:31:07;;;;;;;45.70;18.17;;;-4.00;87.20;;;;;;10231987;28;20035;-84
2022/03/11 00:36:07;;;;;;;39.70;16.33;;;-4.00;86.90;;;;;;10251620;28;20104;-84
2022/03/11 00:41:08;;;;;;;39.83;16.17;;;-4.10;86.70;;;;;;10284611;28;20084;-84
2022/03/11 00:46:09;;;;;;;37.67;16.13;;;-4.00;86.30;;;;;;10288562;28;20050;-83
2022/03/11 00:51:10;;;;;;;40.00;17.07;;;-4.10;86.00;;;;;;10288016;28;20047;-84
2022/03/11 00:56:10;;;;;;;38.97;16.97;;;-4.10;85.90;;;;;;10287947;28;20043;-84
2022/03/11 01:01:11;;;;;;;41.13;15.27;;;-4.20;85.90;;;;;;10287103;28;20165;-85
2022/03/11 01:06:12;;;;;;;35.97;13.07;;;-4.20;85.70;;;;;;10287775;28;20038;-84
2022/03/11 01:11:13;;;;;;;35.13;14.03;;;-4.20;85.70;;;;;;10270075;28;20042;-84
2022/03/11 01:16:13;;;;;;;36.60;14.37;;;-4.30;85.70;;;;;;10286747;28;20106;-84
2022/03/11 01:21:14;;;;;;;37.20;15.53;;;-4.30;85.70;;;;;;10287551;28;20743;-84
2022/03/11 01:26:16;;;;;;;36.67;13.63;;;-4.40;85.80;;;;;;10286719;28;20062;-84
2022/03/11 01:31:17;;;;;;;27.63;12.67;;;-4.40;85.80;;;;;;10286981;28;20045;-84
2022/03/11 01:36:18;;;;;;;31.57;13.20;;;-4.50;85.70;;;;;;10287080;28;20045;-84
2022/03/11 01:41:19;;;;;;;30.93;11.47;;;-4.60;85.80;;;;;;10269514;28;20125;-84
2022/03/11 01:46:20;;;;;;;31.57;12.03;;;-4.60;85.90;;;;;;10268320;28;20038;-84
2022/03/11 01:51:21;;;;;;;32.67;11.73;;;-4.60;86.20;;;;;;10286562;28;20066;-86
2022/03/11 01:56:23;;;;;;;27.73;11.03;;;-4.70;85.90;;;;;;10286740;28;20035;-84
2022/03/11 02:01:25;;;;;;;26.63;10.37;;;-4.80;86.20;;;;;;10285672;28;20045;-84
2022/03/11 02:06:26;;;;;;;28.63;11.93;;;-4.80;86.40;;;;;;10286368;28;20105;-84
2022/03/11 02:11:27;;;;;;;25.73;12.53;;;-4.90;86.50;;;;;;10285773;28;20042;-84
2022/03/11 02:16:30;;;;;;;30.73;11.70;;;-5.00;86.60;;;;;;10286285;28;20042;-85
2022/03/11 02:21:34;;;;;;;21.40;9.20;;;-5.00;86.40;;;;;;10285233;28;20066;-85
2022/03/11 02:26:36;;;;;;;33.33;12.33;;;-5.00;86.30;;;;;;10286064;28;20061;-84
2022/03/11 02:31:36;;;;;;;27.47;10.93;;;-5.00;86.30;;;;;;10293427;28;20034;-86
2022/03/11 02:36:37;;;;;;;35.37;11.50;;;-5.00;86.40;;;;;;10275661;28;20686;-84
2022/03/11 02:41:41;;;;;;;28.77;9.83;;;-5.10;86.20;;;;;;10293235;28;20038;-84
2022/03/11 02:46:41;;;;;;;25.53;11.93;;;-5.10;86.20;;;;;;10292832;28;20027;-84
2022/03/11 02:51:42;;;;;;;28.00;10.93;;;-5.10;86.00;;;;;;10292530;28;20047;-84
2022/03/11 02:56:43;;;;;;;26.37;11.10;;;-5.10;86.10;;;;;;10290225;28;20498;-84
2022/03/11 03:01:44;;;;;;;30.43;10.37;;;-5.10;86.40;;;;;;10292533;28;20046;-84
2022/03/11 03:06:44;;;;;;;24.93;11.70;;;-5.10;86.50;;;;;;10291878;28;20100;-84
2022/03/11 03:11:45;;;;;;;27.47;10.20;;;-5.10;86.60;;;;;;10292215;28;20739;-86
2022/03/11 03:16:46;;;;;;;31.70;11.40;;;-5.20;86.50;;;;;;10291266;28;20035;-85
2022/03/11 03:21:47;;;;;;;31.90;11.00;;;-5.20;86.80;;;;;;10292117;28;20391;-85
2022/03/11 03:26:47;;;;;;;27.67;11.93;;;-5.30;87.10;;;;;;10290389;28;20483;-85
2022/03/11 03:31:48;;;;;;;29.10;10.43;;;-5.40;87.50;;;;;;10273635;28;20047;-84
2022/03/11 03:36:49;;;;;;;30.97;10.73;;;-5.40;87.90;;;;;;10290363;28;20066;-84
2022/03/11 03:41:50;;;;;;;32.20;10.40;;;-5.40;88.00;;;;;;10290542;28;20041;-84
2022/03/11 03:46:51;;;;;;;29.20;11.07;;;-5.50;88.40;;;;;;10273820;28;20037;-84
2022/03/11 03:51:52;;;;;;;27.80;10.73;;;-5.50;88.70;;;;;;10289563;28;20045;-84
2022/03/11 03:56:53;;;;;;;28.73;12.03;;;-5.60;89.20;;;;;;10289673;28;20033;-84
2022/03/11 04:01:53;;;;;;;24.43;11.63;;;-5.60;89.80;;;;;;10269458;28;20039;-85
2022/03/11 04:06:54;;;;;;;33.33;12.40;;;-5.60;91.40;;;;;;10284569;28;20047;-84
2022/03/11 04:11:54;;;;;;;34.07;11.90;;;-5.50;92.20;;;;;;10290221;28;20050;-84
2022/03/11 04:16:55;;;;;;;31.17;12.43;;;-5.50;92.30;;;;;;10271703;28;20031;-84
2022/03/11 04:21:56;;;;;;;28.30;11.27;;;-5.50;92.30;;;;;;10289625;28;20034;-84
2022/03/11 04:26:56;;;;;;;29.93;10.77;;;-5.50;92.30;;;;;;10270854;28;20166;-85
2022/03/11 04:31:57;;;;;;;30.13;12.67;;;-5.50;92.50;;;;;;10288416;28;20045;-84
2022/03/11 04:36:58;;;;;;;32.23;13.73;;;-5.50;92.00;;;;;;10272251;28;20117;-84
2022/03/11 04:41:59;;;;;;;36.30;16.03;;;-5.60;92.30;;;;;;10288460;28;20521;-83
2022/03/11 04:46:59;;;;;;;32.33;12.13;;;-5.80;92.60;;;;;;10270215;28;20039;-86
2022/03/11 04:52:00;;;;;;;30.70;12.27;;;-6.10;93.00;;;;;;10287576;28;20054;-84
2022/03/11 04:57:01;;;;;;;29.60;11.77;;;-6.20;94.30;;;;;;10270404;28;20031;-84
2022/03/11 05:02:02;;;;;;;33.43;12.90;;;-6.20;94.90;;;;;;10281442;28;20074;-86
2022/03/11 05:07:06;;;;;;;34.50;12.27;;;-6.20;94.90;;;;;;10275141;28;20450;-84
2022/03/11 05:12:07;;;;;;;33.57;11.67;;;-6.20;94.90;;;;;;10267739;28;20089;-83
2022/03/11 05:17:07;;;;;;;27.33;11.07;;;-6.20;95.20;;;;;;10268720;28;20039;-84
2022/03/11 05:22:08;;;;;;;26.87;11.07;;;-6.20;95.00;;;;;;10278704;28;20041;-83
2022/03/11 05:27:09;;;;;;;31.93;11.63;;;-6.10;94.80;;;;;;10284017;28;20059;-85
2022/03/11 05:32:10;;;;;;;33.80;13.77;;;-6.10;94.90;;;;;;10285334;28;20494;-85
2022/03/11 05:37:11;;;;;;;32.37;12.70;;;-6.00;94.70;;;;;;10287071;28;20031;-84
2022/03/11 05:42:11;;;;;;;38.17;13.57;;;-6.00;94.50;;;;;;10283719;28;20082;-87
2022/03/11 05:47:12;;;;;;;32.87;14.03;;;-5.90;95.10;;;;;;10283641;28;20386;-84
2022/03/11 05:52:13;;;;;;;33.37;14.60;;;-5.80;94.50;;;;;;10282768;28;20534;-86
2022/03/11 05:57:13;;;;;;;31.47;14.57;;;-5.70;94.40;;;;;;10284516;28;20370;-84
2022/03/11 06:02:14;;;;;;;42.83;15.00;;;-5.60;94.50;;;;;;10286293;28;20029;-85
2022/03/11 06:07:15;;;;;;;44.13;14.93;;;-5.50;94.50;;;;;;10293884;28;20031;-86
2022/03/11 06:12:15;;;;;;;32.20;14.50;;;-5.30;94.00;;;;;;10294071;28;20042;-85
2022/03/11 06:17:16;;;;;;;40.60;15.80;;;-5.20;93.80;;;;;;10292806;28;20049;-86
2022/03/11 06:22:17;;;;;;;38.17;14.93;;;-5.00;93.30;;;;;;10293401;28;20037;-85
2022/03/11 06:27:18;;;;;;;41.60;15.67;;;-4.80;92.80;;;;;;10291613;28;20119;-86
2022/03/11 06:32:19;;;;;;;42.87;16.17;;;-4.70;92.60;;;;;;10291110;28;20054;-86
2022/03/11 06:37:19;;;;;;;41.83;14.07;;;-4.50;91.90;;;;;;10293020;28;20075;-87
2022/03/11 06:42:20;;;;;;;51.60;17.23;;;-4.30;91.90;;;;;;10290681;28;20455;-84
2022/03/11 06:47:21;;;;;;;87.77;34.47;;;-4.10;91.30;;;;;;10291623;28;20038;-84
2022/03/11 06:52:21;;;;;;;217.40;71.33;;;-4.00;90.30;;;;;;10260637;28;20046;-86
2022/03/11 06:57:22;;;;;;;108.53;53.80;;;-3.70;90.00;;;;;;10287740;28;20383;-84
2022/03/11 07:02:23;;;;;;;55.23;23.30;;;-3.50;89.40;;;;;;10260091;28;20031;-85
2022/03/11 07:07:24;;;;;;;38.30;14.47;;;-3.30;88.20;;;;;;10252349;29;20035;-86
2022/03/11 07:12:26;;;;;;;38.60;13.87;;;-3.10;87.70;;;;;;10262522;28;20031;-84
2022/03/11 07:17:27;;;;;;;32.43;12.30;;;-2.90;86.70;;;;;;10251752;28;20023;-86
2022/03/11 07:22:27;;;;;;;38.07;12.60;;;-2.70;82.90;;;;;;10252200;29;20663;-85
2022/03/11 07:27:28;;;;;;;34.27;12.73;;;-2.40;82.60;;;;;;10251343;29;20055;-87
2022/03/11 07:32:29;;;;;;;34.63;13.73;;;-2.10;82.30;;;;;;10251347;29;20047;-87
2022/03/11 07:37:29;;;;;;;32.17;13.93;;;-1.90;79.80;;;;;;10252400;29;20039;-85
2022/03/11 07:42:31;;;;;;;27.37;12.70;;;-1.60;77.80;;;;;;10251357;29;20468;-84
2022/03/11 07:47:31;;;;;;;26.77;10.70;;;-1.50;78.60;;;;;;10251495;29;20035;-84
2022/03/11 07:52:32;;;;;;;25.57;10.90;;;-1.10;78.10;;;;;;10251468;29;20039;-85
2022/03/11 07:57:33;;;;;;;32.10;13.07;;;-0.90;74.90;;;;;;10250378;29;20566;-87
2022/03/11 08:02:34;;;;;;;34.50;13.23;;;-0.70;74.80;;;;;;10233280;29;20040;-85
2022/03/11 08:07:34;;;;;;;45.63;14.57;;;-0.50;74.90;;;;;;10250133;29;20031;-86
2022/03/11 08:12:36;;;;;;;32.73;12.67;;;-0.10;75.20;;;;;;10250585;29;20502;-85
2022/03/11 08:17:38;;;;;;;33.27;11.63;;;0.20;74.40;;;;;;10250310;29;20031;-88
2022/03/11 08:22:39;;;;;;;23.70;10.37;;;0.30;70.60;;;;;;10249559;29;20039;-86
2022/03/11 08:27:40;;;;;;;29.67;10.50;;;0.40;69.80;;;;;;10231735;29;20047;-84
2022/03/11 08:32:41;;;;;;;46.50;16.77;;;0.60;68.20;;;;;;10232080;29;20046;-85
2022/03/11 08:37:43;;;;;;;21.90;8.40;;;1.00;71.70;;;;;;10249992;29;20490;-88
2022/03/11 08:42:44;;;;;;;28.33;9.90;;;1.40;70.30;;;;;;10249394;29;20090;-85
2022/03/11 08:47:45;;;;;;;17.67;8.03;;;1.60;67.00;;;;;;10249329;29;20023;-85
2022/03/11 08:52:46;;;;;;;17.83;8.17;;;1.70;64.20;;;;;;10249092;29;20027;-88
2022/03/11 08:57:50;;;;;;;17.40;7.13;;;1.90;61.00;;;;;;10265519;28;20042;-85
2022/03/11 09:02:51;;;;;;;18.33;8.07;;;2.00;60.00;;;;;;10285338;28;20027;-88
2022/03/11 09:07:52;;;;;;;22.43;9.13;;;2.40;61.70;;;;;;10284050;28;20458;-84
2022/03/11 09:12:52;;;;;;;19.23;7.87;;;2.60;57.40;;;;;;10269816;28;20039;-84
2022/03/11 09:17:53;;;;;;;16.70;7.43;;;2.70;58.10;;;;;;10287503;28;20044;-85
2022/03/11 09:22:53;;;;;;;21.77;8.13;;;2.80;57.30;;;;;;10286896;28;20030;-86
2022/03/11 09:27:54;;;;;;;11.33;5.30;;;3.10;58.30;;;;;;10287460;28;20499;-86
2022/03/11 09:32:55;;;;;;;16.63;6.73;;;3.20;53.20;;;;;;10269347;28;20133;-86
2022/03/11 09:37:55;;;;;;;24.60;9.67;;;3.50;53.50;;;;;;10287637;28;20092;-87
2022/03/11 09:42:57;;;;;;;20.17;7.40;;;3.80;56.50;;;;;;10287047;28;20039;-86
2022/03/11 09:47:58;;;;;;;20.37;9.27;;;4.00;52.00;;;;;;10286652;28;20087;-87
2022/03/11 09:53:02;;;;;;;34.10;8.50;;;4.10;51.00;;;;;;10284900;28;20050;-88
2022/03/11 09:58:02;;;;;;;22.30;9.07;;;4.20;49.10;;;;;;10286754;28;20479;-86
2022/03/11 10:03:04;;;;;;;15.23;6.47;;;4.30;50.70;;;;;;10287245;28;20027;-86
2022/03/11 10:08:05;;;;;;;15.87;7.90;;;4.30;49.10;;;;;;10277933;28;20035;-87
2022/03/11 10:13:08;;;;;;;20.00;8.13;;;4.20;50.00;;;;;;10285270;28;20479;-88
2022/03/11 10:18:09;;;;;;;16.13;6.83;;;4.60;52.00;;;;;;10286128;28;20085;-87
2022/03/11 10:23:14;;;;;;;17.73;7.83;;;4.70;49.30;;;;;;10286144;28;20479;-87
2022/03/11 10:28:16;;;;;;;15.13;6.83;;;4.90;51.00;;;;;;10286339;28;20051;-87
2022/03/11 10:33:17;;;;;;;57.60;24.93;;;4.90;47.70;;;;;;10285937;28;20043;-87
2022/03/11 10:38:20;;;;;;;42.17;15.20;;;5.00;50.50;;;;;;10285600;28;20030;-86
2022/03/11 10:43:23;;;;;;;20.70;8.23;;;5.30;50.70;;;;;;10267033;28;20031;-89
2022/03/11 10:48:44;;;;;;;24.20;10.40;;;5.40;46.40;;;;;;10285855;28;20035;-86
2022/03/11 10:53:49;;;;;;;37.80;12.63;;;5.40;46.40;;;;;;10292384;28;20145;-87
2022/03/11 10:58:50;;;;;;;24.43;9.40;;;5.40;45.30;;;;;;10275315;28;20061;-88
2022/03/11 11:03:50;;;;;;;20.67;8.50;;;5.40;46.10;;;;;;10276400;28;20058;-87
2022/03/11 11:08:52;;;;;;;18.23;7.43;;;5.50;46.70;;;;;;10292033;28;20030;-88
2022/03/11 11:13:52;;;;;;;32.00;11.03;;;5.60;46.30;;;;;;10292471;28;20465;-87
2022/03/11 11:18:57;;;;;;;14.80;5.70;;;5.50;45.50;;;;;;10292303;28;20027;-88
2022/03/11 11:23:58;;;;;;;24.50;8.73;;;5.40;44.50;;;;;;10291413;28;20030;-88
2022/03/11 11:29:00;;;;;;;35.00;12.80;;;5.40;46.10;;;;;;10292257;28;20059;-87
2022/03/11 11:34:00;;;;;;;12.50;4.50;;;5.40;46.50;;;;;;10291093;28;20048;-87
2022/03/11 11:39:05;;;;;;;18.70;7.13;;;5.50;46.30;;;;;;10274330;28;20035;-88
2022/03/11 11:44:08;;;;;;;9.77;3.67;;;5.40;44.70;;;;;;10290995;28;20062;-88
2022/03/11 11:49:15;;;;;;;19.03;6.80;;;5.20;41.50;;;;;;10283911;28;20023;-88
2022/03/11 11:54:33;;;;;;;29.67;9.63;;;4.80;43.40;;;;;;10290540;28;20043;-88
2022/03/11 11:59:37;;;;;;;27.83;8.93;;;5.00;44.60;;;;;;10290642;28;20031;-88
2022/03/11 12:04:39;;;;;;;22.10;9.10;;;5.30;45.00;;;;;;10290066;28;20038;-87
2022/03/11 12:09:45;;;;;;;14.37;5.80;;;5.40;43.70;;;;;;10290104;28;20038;-87
2022/03/11 12:15:01;;;;;;;18.85;8.27;;;5.30;44.80;;;;;;10288841;28;20046;-85
2022/03/11 12:20:35;;;;;;;52.42;20.63;;;5.40;45.30;;;;;;10271222;28;20041;-87
2022/03/11 12:25:37;;;;;;;19.33;7.40;;;5.50;45.40;;;;;;10267520;28;20054;-85
2022/03/11 12:30:41;;;;;;;82.33;42.93;;;5.40;44.30;;;;;;10285359;28;20037;-86
2022/03/11 12:35:44;;;;;;;18.97;8.37;;;5.30;43.80;;;;;;10289308;28;20089;-88
2022/03/11 12:40:46;;;;;;;558.90;314.23;;;5.50;44.80;;;;;;10287890;28;20026;-86
2022/03/11 12:45:52;;;;;;;187.40;82.93;;;5.50;44.60;;;;;;10270898;28;20041;-86
2022/03/11 12:50:53;;;;;;;;;;;5.10;43.60;;;;;;10289216;28;20537;-85
2022/03/11 12:55:55;;;;;;;66.47;24.83;;;5.20;43.40;;;;;;10288319;28;19978;-86
2022/03/11 13:01:01;;;;;;;71.93;27.97;;;5.40;45.80;;;;;;10288071;28;20030;-84
2022/03/11 13:06:05;;;;;;;12.10;5.03;;;5.50;45.10;;;;;;10270124;28;20428;-86
2022/03/11 13:11:08;;;;;;;13.50;5.93;;;5.50;45.10;;;;;;10287365;28;20085;-87
2022/03/11 13:16:09;;;;;;;18.33;5.80;;;5.40;43.00;;;;;;10287830;28;20068;-86
2022/03/11 13:21:11;;;;;;;21.73;8.60;;;5.30;43.80;;;;;;10287077;28;20522;-86
2022/03/11 13:26:20;;;;;;;30.13;11.90;;;5.30;44.60;;;;;;10286590;28;20566;-85
2022/03/11 13:31:31;;;;;;;13.53;5.50;;;5.50;46.10;;;;;;10268353;28;20415;-86
2022/03/11 13:36:35;;;;;;;13.33;5.40;;;5.40;42.70;;;;;;10278126;28;20415;-85
2022/03/11 13:41:47;;;;;;;22.73;7.90;;;5.30;44.80;;;;;;10286968;28;20041;-85
2022/03/11 13:46:56;;;;;;;13.67;4.90;;;5.00;44.10;;;;;;10286738;28;20506;-86
2022/03/11 13:51:58;;;;;;;63.83;22.43;;;5.00;43.80;;;;;;10280248;28;20066;-85
2022/03/11 13:57:16;;;;;;;117.33;41.33;;;5.30;45.10;;;;;;10267809;28;20030;-87
2022/03/11 14:02:22;;;;;;;87.90;27.17;;;5.40;45.30;;;;;;10286323;28;20039;-87
2022/03/11 14:07:24;;;;;;;35.95;14.77;;;5.40;44.80;;;;;;10287027;28;20066;-86
2022/03/11 14:12:26;;;;;;;11.23;4.67;;;5.30;45.60;;;;;;10285655;28;20606;-87
2022/03/11 14:17:31;;;;;;;69.30;25.90;;;5.10;44.10;;;;;;10269679;28;20023;-86
2022/03/11 14:22:34;;;;;;;16.07;7.07;;;5.20;45.90;;;;;;10287291;28;20518;-86
2022/03/11 14:27:35;;;;;;;13.90;6.40;;;5.10;43.10;;;;;;10276176;28;20073;-84
2022/03/11 14:32:36;;;;;;;14.13;5.50;;;5.00;44.00;;;;;;10293405;28;20394;-86
2022/03/11 14:37:36;;;;;;;18.37;7.97;;;4.40;43.40;;;;;;10293268;28;20117;-87
2022/03/11 14:42:38;;;;;;;24.83;9.93;;;4.30;45.10;;;;;;10293533;28;20058;-86
2022/03/11 14:47:41;;;;;;;27.37;9.50;;;4.40;45.30;;;;;;10289989;28;20157;-85
2022/03/11 14:52:45;;;;;;;64.07;22.87;;;4.50;45.40;;;;;;10269600;28;20039;-86
2022/03/11 14:57:45;;;;;;;33.70;14.30;;;4.50;45.90;;;;;;10262124;28;20121;-85
2022/03/11 15:02:46;;;;;;;17.13;7.33;;;4.40;45.80;;;;;;10289230;28;20409;-85
2022/03/11 15:07:47;;;;;;;17.13;7.33;;;4.20;45.40;;;;;;10272078;28;20035;-87
2022/03/11 15:12:52;;;;;;;17.57;7.27;;;4.10;45.50;;;;;;10292271;28;20043;-86
2022/03/11 15:17:53;;;;;;;22.67;8.13;;;3.80;44.20;;;;;;10293396;28;20475;-85
2022/03/11 15:22:53;;;;;;;33.03;12.17;;;3.50;44.40;;;;;;10292105;28;20027;-86
2022/03/11 15:27:56;;;;;;;33.37;11.73;;;3.40;45.80;;;;;;10279721;28;20507;-86
2022/03/11 15:32:58;;;;;;;87.00;27.77;;;3.40;45.00;;;;;;10278989;28;20050;-85
2022/03/11 15:37:59;;;;;;;57.30;21.77;;;3.30;45.70;;;;;;10263818;28;20167;-86
2022/03/11 15:48:40;;;;;;;69.90;24.57;;;3.20;46.70;;;;;;10266024;28;20082;-84
2022/03/11 15:54:27;;;;;;;56.20;19.50;;;3.10;47.00;;;;;;10290459;28;20542;-85
2022/03/11 15:59:37;;;;;;;70.87;22.93;;;2.90;46.80;;;;;;10289482;28;20050;-85
2022/03/11 16:10:42;;;;;;;63.08;25.92;;;2.60;46.10;;;;;;10287084;28;20035;-87
2022/03/11 16:15:43;;;;;;;327.77;131.50;;;2.40;46.70;;;;;;10289934;28;20038;-85
2022/03/11 16:21:43;;;;;;;;;;;;;;;;;;;;;
2022/03/11 16:26:44;;;;;;;746.03;327.53;;;1.90;47.10;;;;;;10280457;28;20054;-85
2022/03/11 16:31:45;;;;;;;67.60;30.87;;;1.70;47.50;;;;;;10265570;28;20031;-87
2022/03/11 16:36:46;;;;;;;38.97;18.97;;;1.50;48.50;;;;;;10252594;28;20435;-85
2022/03/11 16:41:47;;;;;;;54.27;37.47;;;1.30;48.80;;;;;;10282411;28;20034;-84
2022/03/11 16:46:48;;;;;;;31.73;17.43;;;1.10;48.80;;;;;;10288673;28;20049;-85
2022/03/11 16:51:51;;;;;;;18.37;9.73;;;0.90;50.20;;;;;;10274130;28;20050;-87
2022/03/11 16:56:51;;;;;;;16.03;9.97;;;0.80;50.30;;;;;;10248406;28;20039;-85
2022/03/11 17:01:52;;;;;;;22.23;11.80;;;0.60;50.80;;;;;;10263442;28;20046;-85
2022/03/11 17:06:53;;;;;;;24.20;13.27;;;0.50;50.90;;;;;;10288570;28;20034;-84
2022/03/11 17:11:54;;;;;;;39.10;29.50;;;0.40;51.00;;;;;;10287576;28;20038;-85
2022/03/11 17:16:55;;;;;;;37.53;18.20;;;0.30;51.10;;;;;;10265105;28;20041;-84
2022/03/11 17:21:56;;;;;;;23.47;11.77;;;0.30;51.70;;;;;;10252084;28;20038;-85
2022/03/11 17:27:00;;;;;;;21.87;9.07;;;0.10;51.80;;;;;;10251854;28;20050;-84
2022/03/11 17:32:04;;;;;;;21.80;8.50;;;0.00;52.40;;;;;;10283186;28;20061;-84
2022/03/11 17:37:04;;;;;;;28.03;10.03;;;-0.10;53.20;;;;;;10287096;28;20023;-84
2022/03/11 17:42:08;;;;;;;22.33;9.33;;;-0.20;53.20;;;;;;10286912;28;20475;-85
2022/03/11 17:47:09;;;;;;;31.37;11.83;;;-0.30;53.70;;;;;;10276669;28;20031;-85
2022/03/11 17:52:12;;;;;;;29.57;12.10;;;-0.50;54.50;;;;;;10285432;28;20051;-85
2022/03/11 17:57:12;;;;;;;28.50;9.87;;;-0.60;54.70;;;;;;10287160;28;20422;-84
2022/03/11 18:02:13;;;;;;;32.67;11.27;;;-0.70;55.40;;;;;;10299957;28;20106;-86
2022/03/11 18:07:15;;;;;;;24.60;9.60;;;-0.70;55.10;;;;;;10271401;28;20041;-85
2022/03/11 18:12:16;;;;;;;26.27;9.93;;;-0.70;54.80;;;;;;10242223;29;20649;-85
2022/03/11 18:17:17;;;;;;;23.20;8.73;;;-0.70;54.70;;;;;;10291480;28;20086;-85
2022/03/11 18:22:20;;;;;;;24.83;10.90;;;-0.70;54.90;;;;;;10263101;28;20122;-85
2022/03/11 18:27:21;;;;;;;29.60;12.27;;;-0.70;54.90;;;;;;10260181;28;20051;-85
2022/03/11 18:32:22;;;;;;;26.87;11.13;;;-0.70;55.70;;;;;;10242510;28;20039;-86
2022/03/11 18:37:23;;;;;;;23.33;8.80;;;-0.80;55.40;;;;;;10264196;28;20034;-86
2022/03/11 18:42:26;;;;;;;20.43;9.43;;;-0.80;55.60;;;;;;10271015;28;20038;-86
2022/03/11 18:47:26;;;;;;;24.20;8.40;;;-0.90;55.80;;;;;;10258239;28;20077;-82
2022/03/11 18:52:27;;;;;;;22.20;8.93;;;-0.90;55.80;;;;;;10295108;28;20558;-86
2022/03/11 18:57:28;;;;;;;23.60;9.63;;;-1.00;56.00;;;;;;10294368;28;20789;-85
2022/03/11 19:02:29;;;;;;;19.40;8.23;;;-1.00;56.30;;;;;;10297374;28;20038;-85
2022/03/11 19:07:30;;;;;;;26.93;8.40;;;-1.10;56.30;;;;;;10292711;28;20035;-84
2022/03/11 19:12:31;;;;;;;21.50;8.33;;;-1.10;56.30;;;;;;10280206;28;20449;-84
2022/03/11 19:17:31;;;;;;;24.13;9.17;;;-1.10;57.60;;;;;;10276220;28;20089;-86
2022/03/11 19:22:32;;;;;;;30.87;10.80;;;-1.20;57.00;;;;;;10266052;28;20027;-85
2022/03/11 19:27:34;;;;;;;26.80;10.57;;;-1.20;56.90;;;;;;10287726;28;20125;-86
2022/03/11 19:32:40;;;;;;;30.63;11.57;;;-1.30;57.90;;;;;;10289532;28;20149;-87
2022/03/11 19:37:41;;;;;;;34.37;13.83;;;-1.30;57.30;;;;;;10286221;28;20565;-83
2022/03/11 19:42:42;;;;;;;32.53;12.73;;;-1.30;57.40;;;;;;10288711;28;20034;-83
2022/03/11 19:47:42;;;;;;;30.00;11.50;;;-1.40;58.10;;;;;;10261527;28;20031;-84
2022/03/11 19:52:43;;;;;;;39.53;14.60;;;-1.40;58.20;;;;;;10269725;28;20057;-83
2022/03/11 19:57:44;;;;;;;50.53;16.53;;;-1.40;58.70;;;;;;10283197;28;20041;-81
2022/03/11 20:02:45;;;;;;;43.60;14.73;;;-1.60;59.30;;;;;;10288027;28;20089;-82
2022/03/11 20:07:54;;;;;;;37.13;13.97;;;-1.60;59.60;;;;;;10276274;28;20038;-83
2022/03/11 20:12:57;;;;;;;41.20;14.97;;;-1.70;59.80;;;;;;10265676;28;20040;-83
2022/03/11 20:17:57;;;;;;;34.13;12.83;;;-1.60;60.80;;;;;;10272324;28;20027;-83
2022/03/11 20:22:59;;;;;;;45.47;15.13;;;-1.60;60.60;;;;;;10275466;28;20031;-86
2022/03/11 20:28:01;;;;;;;52.70;17.67;;;-1.70;60.90;;;;;;10266444;28;20054;-82
2022/03/11 20:33:02;;;;;;;57.87;20.17;;;-1.80;61.20;;;;;;10287400;28;20051;-84
2022/03/11 20:38:04;;;;;;;60.63;18.50;;;-1.90;61.70;;;;;;10277622;28;20070;-85
2022/03/11 20:43:05;;;;;;;106.70;35.60;;;-1.90;61.90;;;;;;10284310;28;20368;-82
2022/03/11 20:48:13;;;;;;;159.43;53.67;;;-2.00;62.70;;;;;;10274230;28;20800;-82
2022/03/11 20:53:14;;;;;;;161.10;58.97;;;-1.90;63.10;;;;;;10249784;28;20658;-84
2022/03/11 20:58:15;;;;;;;152.07;53.33;;;-1.90;62.60;;;;;;10260221;28;20039;-85
2022/03/11 21:03:18;;;;;;;123.90;41.33;;;-1.80;62.70;;;;;;10287264;28;20031;-85
2022/03/11 21:08:20;;;;;;;141.50;50.20;;;-1.80;62.80;;;;;;10288005;28;20545;-86
2022/03/11 21:13:20;;;;;;;98.43;33.60;;;-1.90;62.60;;;;;;10287926;28;20030;-87
2022/03/11 21:18:21;;;;;;;80.87;29.10;;;-1.90;62.70;;;;;;10278994;28;20407;-86
2022/03/11 21:23:22;;;;;;;83.50;30.20;;;-2.00;63.00;;;;;;10263535;28;20537;-85
2022/03/11 21:28:23;;;;;;;73.33;26.67;;;-2.00;63.30;;;;;;10255408;28;20059;-86
2022/03/11 21:33:24;;;;;;;73.60;26.07;;;-1.90;63.60;;;;;;10253615;28;20149;-86
2022/03/11 21:38:25;;;;;;;48.13;17.00;;;-1.90;63.90;;;;;;10229905;28;20043;-88
2022/03/11 21:43:25;;;;;;;47.03;17.70;;;-1.80;63.90;;;;;;10250901;28;20118;-87
2022/03/11 21:48:26;;;;;;;47.47;18.70;;;-1.70;63.70;;;;;;10238176;28;20043;-86
2022/03/11 21:53:27;;;;;;;49.60;21.80;;;-1.70;63.40;;;;;;10282281;28;20135;-86
2022/03/11 21:58:28;;;;;;;47.10;18.10;;;-1.70;63.70;;;;;;10286149;28;20031;-87
2022/03/11 22:03:30;;;;;;;46.10;18.73;;;-1.70;63.70;;;;;;10285790;28;20106;-87
2022/03/11 22:08:30;;;;;;;61.07;22.07;;;-1.70;63.70;;;;;;10268821;28;20117;-87
2022/03/11 22:13:32;;;;;;;66.13;24.23;;;-1.80;63.80;;;;;;10268298;28;20043;-86
2022/03/11 22:18:32;;;;;;;60.90;22.27;;;-1.80;64.10;;;;;;10285628;28;20074;-86
2022/03/11 22:23:33;;;;;;;51.63;19.60;;;-1.90;64.40;;;;;;10269323;28;20506;-86
2022/03/11 22:28:34;;;;;;;55.90;22.30;;;-1.90;64.50;;;;;;10284050;28;20069;-87
2022/03/11 22:33:35;;;;;;;52.67;20.63;;;-2.00;64.90;;;;;;10285498;28;20050;-87
2022/03/11 22:38:36;;;;;;;50.57;20.30;;;-2.00;65.00;;;;;;10285496;28;20049;-86
2022/03/11 22:43:36;;;;;;;47.63;18.70;;;-2.00;65.50;;;;;;10286575;28;20121;-86
2022/03/11 22:48:40;;;;;;;46.30;19.97;;;-2.10;65.40;;;;;;10293561;28;20042;-87
2022/03/11 22:53:40;;;;;;;51.57;20.60;;;-2.10;65.80;;;;;;10292576;28;20118;-86
2022/03/11 22:58:41;;;;;;;37.87;15.40;;;-2.20;65.80;;;;;;10292578;28;20034;-86
2022/03/11 23:03:42;;;;;;;49.57;18.30;;;-2.30;66.10;;;;;;10292014;28;20324;-86
2022/03/11 23:14:20;;;;;;;54.53;19.87;;;-2.40;66.90;;;;;;10202508;29;20063;-87
2022/03/11 23:19:20;;;;;;;53.13;20.23;;;-2.50;67.30;;;;;;10272363;28;20031;-87
2022/03/11 23:24:22;;;;;;;46.23;18.80;;;-2.60;67.50;;;;;;10291192;28;20038;-86
2022/03/11 23:29:24;;;;;;;44.50;18.53;;;-2.70;67.60;;;;;;10291473;28;20524;-87
2022/03/11 23:34:25;;;;;;;45.53;15.13;;;-2.70;67.90;;;;;;10273477;28;20054;-86
2022/03/11 23:39:25;;;;;;;37.23;13.97;;;-2.70;68.20;;;;;;10291104;28;20039;-86
2022/03/11 23:44:27;;;;;;;40.93;15.73;;;-2.80;68.50;;;;;;10273999;28;20034;-86
2022/03/11 23:49:28;;;;;;;54.33;18.30;;;-2.90;68.70;;;;;;10291686;28;20045;-86
2022/03/11 23:54:29;;;;;;;41.57;15.43;;;-2.90;68.60;;;;;;10289947;28;20042;-86
2022/03/11 23:59:30;;;;;;;42.10;17.00;;;-2.90;68.60;;;;;;10272164;28;20030;-86
